METAR AND TAF INFORMATION
METAR FOR ETMN
ADDS - METARS form results

(2249 UTC 20 September 2020)
Data provider http://aviationweather.gov/metar/data/
 
METAR text: ETMN 202220Z AUTO 06005KT 9000 // ////// 11/10 Q1020 ///
Conditions at: ETMN (NORDHOLZ (GER-NA, DE) observed 2220 UTC 20 September 2020
Temperature: 11.0°C (52°F)
Dewpoint: 10.0°C (50°F) [RH = 94%]
Pressure (altimeter): 30.12 inches Hg (1020.0 mb)
Winds: from the ENE (60 degrees) at 6 MPH (5 knots; 2.6 m/s)
Visibility: 6 miles ( 9 km)
Ceiling: unknown
Clouds: missing
Weather: no significant weather observed at this time

 AIRPORT MAP

 RUNWAY INFORMATION
Runway 08 Runway length 8002 ft Runway width 148 ft
Runway elevation 69 ft Runway displaced threshold 0 ft Runway heading 78
Runway 26 Runway length 8002 ft Runway width 148 ft
Runway elevation 39 ft Runway displaced threshold 0 ft Runway heading 258

 AIRPORT FREQUENCIES
Type A/D Name RADAR Frequency 35.612 MHZ
Type A/D Name RADAR Frequency 123.3 MHZ
Type ACC Name BREMEN CON Frequency 124.075 MHZ
Type AFIS Name BREMEN INF Frequency 125.1 MHZ
Type OPS Name WING OPS Frequency 28.252 MHZ
Type TWR Name TWR Frequency 122.1 MHZ

 AIRPORT NEAR NAVIGATION AIDS
Type TACAN Name Nordholz Frequency 117100 KHZ
Type NDB Name Nordholz Frequency 372 KHZ